KWRI/WRI METAR and TAF weather

Enter ICAO airport designator
Station Type Date Time Source
KWRI METAR 2019/10/18 10:56 UTC NOAA

KWRI 181056Z AUTO 28005KT 10SM CLR 08/04 A2979 RMK AO2 SLP088 T00770037


Station Type Date Time Source
KWRI Decoded METAR 2019/10/18 10:56 UTC NOAA

Mcguire Air Force Base, NJ, United States (KWRI) 40-01N 074-36W
Oct 18, 2019 - 06:56 AM EDT / 2019.10.18 1056 UTC
Wind: from the W (280 degrees) at 6 MPH (5 KT):0
Visibility: 10 mile(s):0
Sky conditions: clear
Temperature: 45.9 F (7.7 C)
Dew Point: 38.7 F (3.7 C)
Relative Humidity: 75%
Pressure (altimeter): 29.79 in. Hg (1008 hPa)
ob: KWRI 181056Z AUTO 28005KT 10SM CLR 08/04 A2979 RMK AO2 SLP088 T00770037
cycle: 11

Station Type Date Time Source
KWRI TAF 2019/10/18 10:03 UTC NOAA

TAF KWRI 181000Z 1810/1916 30012KT 9999 SCT035 QNH2974INS
BECMG 1813/1814 33012G20KT 9999 SCT040 QNH2984INS
BECMG 1821/1822 VRB06KT 9999 FEW250 QNH2999INS TX16/1819Z TN03/1910Z

Example: see airport list